Terminal Aerodrome Forecast
Issued by NWS

Home | Current Version | Previous Version | Text Only | Print | Product List | Glossary On
Versions: 1 2 3 4 5 6 7 8 9 10 11 12 13 14
521
FTUS45 KVEF 231725
TAFEED
TAF
KEED 231725Z 2318/2418 30016G22KT P6SM FEW080 SCT100
     FM231900 33012G20KT P6SM SCT100
     FM240200 28010KT P6SM FEW200=

USA.gov is the U.S. government's official web portal to all federal, state and local government web resources and services.